sensor_id;sensor_type;location;lat;lon;timestamp;P1;durP1;ratioP1;P2;durP2;ratioP2
79137;SDS011;68544;45.566;10.238;2023-10-13T00:00:27;30.02;;;23.70;;
79137;SDS011;68544;45.566;10.238;2023-10-13T00:02:55;29.00;;;23.63;;
79137;SDS011;68544;45.566;10.238;2023-10-13T00:05:25;30.27;;;22.40;;
79137;SDS011;68544;45.566;10.238;2023-10-13T00:07:51;27.50;;;22.77;;
79137;SDS011;68544;45.566;10.238;2023-10-13T00:10:16;26.53;;;21.90;;
79137;SDS011;68544;45.566;10.238;2023-10-13T00:12:44;28.45;;;22.65;;
79137;SDS011;68544;45.566;10.238;2023-10-13T00:15:14;31.13;;;22.98;;
79137;SDS011;68544;45.566;10.238;2023-10-13T00:17:43;28.25;;;23.60;;
79137;SDS011;68544;45.566;10.238;2023-10-13T00:20:09;27.73;;;22.43;;
79137;SDS011;68544;45.566;10.238;2023-10-13T00:22:59;28.98;;;21.80;;
79137;SDS011;68544;45.566;10.238;2023-10-13T00:25:24;30.97;;;22.70;;
79137;SDS011;68544;45.566;10.238;2023-10-13T00:27:56;26.80;;;22.13;;
79137;SDS011;68544;45.566;10.238;2023-10-13T00:30:23;30.05;;;22.88;;
79137;SDS011;68544;45.566;10.238;2023-10-13T00:32:58;26.02;;;22.63;;
79137;SDS011;68544;45.566;10.238;2023-10-13T00:35:25;28.17;;;22.92;;
79137;SDS011;68544;45.566;10.238;2023-10-13T00:38:00;30.10;;;21.47;;
79137;SDS011;68544;45.566;10.238;2023-10-13T00:40:29;25.35;;;21.92;;
79137;SDS011;68544;45.566;10.238;2023-10-13T00:42:56;27.95;;;21.90;;
79137;SDS011;68544;45.566;10.238;2023-10-13T00:45:43;27.73;;;21.65;;
79137;SDS011;68544;45.566;10.238;2023-10-13T00:48:10;28.63;;;21.88;;
79137;SDS011;68544;45.566;10.238;2023-10-13T00:50:38;25.33;;;21.50;;
79137;SDS011;68544;45.566;10.238;2023-10-13T00:53:04;28.67;;;21.58;;
79137;SDS011;68544;45.566;10.238;2023-10-13T00:55:29;26.90;;;23.08;;
79137;SDS011;68544;45.566;10.238;2023-10-13T00:57:58;27.80;;;22.27;;
79137;SDS011;68544;45.566;10.238;2023-10-13T01:00:28;25.05;;;22.17;;
79137;SDS011;68544;45.566;10.238;2023-10-13T01:02:54;26.35;;;21.92;;
79137;SDS011;68544;45.566;10.238;2023-10-13T01:05:31;26.75;;;21.73;;
79137;SDS011;68544;45.566;10.238;2023-10-13T01:08:01;29.33;;;22.92;;
79137;SDS011;68544;45.566;10.238;2023-10-13T01:10:28;27.20;;;21.50;;
79137;SDS011;68544;45.566;10.238;2023-10-13T01:12:57;25.98;;;22.92;;
79137;SDS011;68544;45.566;10.238;2023-10-13T01:15:24;25.70;;;22.20;;
79137;SDS011;68544;45.566;10.238;2023-10-13T01:17:54;26.83;;;23.20;;
79137;SDS011;68544;45.566;10.238;2023-10-13T01:20:36;28.05;;;21.67;;
79137;SDS011;68544;45.566;10.238;2023-10-13T01:23:10;25.90;;;21.98;;
79137;SDS011;68544;45.566;10.238;2023-10-13T01:25:43;26.58;;;22.35;;
79137;SDS011;68544;45.566;10.238;2023-10-13T01:28:09;26.65;;;21.35;;
79137;SDS011;68544;45.566;10.238;2023-10-13T01:30:34;24.63;;;21.33;;
79137;SDS011;68544;45.566;10.238;2023-10-13T01:33:03;27.77;;;22.00;;
79137;SDS011;68544;45.566;10.238;2023-10-13T01:35:28;23.02;;;20.38;;
79137;SDS011;68544;45.566;10.238;2023-10-13T01:38:07;25.50;;;21.38;;
79137;SDS011;68544;45.566;10.238;2023-10-13T01:40:33;31.20;;;21.02;;
79137;SDS011;68544;45.566;10.238;2023-10-13T01:43:00;27.33;;;21.27;;
79137;SDS011;68544;45.566;10.238;2023-10-13T01:45:25;24.95;;;21.83;;
79137;SDS011;68544;45.566;10.238;2023-10-13T01:47:54;23.55;;;21.05;;
79137;SDS011;68544;45.566;10.238;2023-10-13T01:50:20;28.33;;;22.25;;
79137;SDS011;68544;45.566;10.238;2023-10-13T01:52:53;27.05;;;21.17;;
79137;SDS011;68544;45.566;10.238;2023-10-13T01:55:30;26.80;;;20.90;;
79137;SDS011;68544;45.566;10.238;2023-10-13T01:57:56;29.08;;;21.30;;
79137;SDS011;68544;45.566;10.238;2023-10-13T02:00:21;24.30;;;21.70;;
79137;SDS011;68544;45.566;10.238;2023-10-13T02:02:47;27.58;;;21.92;;
79137;SDS011;68544;45.566;10.238;2023-10-13T02:05:15;31.23;;;23.30;;
79137;SDS011;68544;45.566;10.238;2023-10-13T02:07:42;25.70;;;22.83;;
79137;SDS011;68544;45.566;10.238;2023-10-13T02:10:10;27.60;;;23.65;;
79137;SDS011;68544;45.566;10.238;2023-10-13T02:12:38;33.15;;;26.88;;
79137;SDS011;68544;45.566;10.238;2023-10-13T02:15:13;29.13;;;24.90;;
79137;SDS011;68544;45.566;10.238;2023-10-13T02:17:51;30.48;;;24.60;;
79137;SDS011;68544;45.566;10.238;2023-10-13T02:22:43;27.65;;;23.95;;
79137;SDS011;68544;45.566;10.238;2023-10-13T02:25:18;31.55;;;24.35;;
79137;SDS011;68544;45.566;10.238;2023-10-13T02:28:03;31.52;;;26.30;;
79137;SDS011;68544;45.566;10.238;2023-10-13T02:30:36;30.67;;;25.40;;
79137;SDS011;68544;45.566;10.238;2023-10-13T02:33:02;29.00;;;25.75;;
79137;SDS011;68544;45.566;10.238;2023-10-13T02:35:30;30.98;;;26.10;;
79137;SDS011;68544;45.566;10.238;2023-10-13T02:38:09;31.27;;;26.25;;
79137;SDS011;68544;45.566;10.238;2023-10-13T02:40:38;36.65;;;26.17;;
79137;SDS011;68544;45.566;10.238;2023-10-13T02:43:04;37.30;;;26.80;;
79137;SDS011;68544;45.566;10.238;2023-10-13T02:45:33;30.33;;;25.40;;
79137;SDS011;68544;45.566;10.238;2023-10-13T02:48:01;36.20;;;26.75;;
79137;SDS011;68544;45.566;10.238;2023-10-13T02:50:56;32.42;;;26.77;;
79137;SDS011;68544;45.566;10.238;2023-10-13T02:53:22;27.65;;;24.73;;
79137;SDS011;68544;45.566;10.238;2023-10-13T02:55:51;31.35;;;25.80;;
79137;SDS011;68544;45.566;10.238;2023-10-13T02:58:17;31.48;;;25.70;;
79137;SDS011;68544;45.566;10.238;2023-10-13T03:00:43;32.83;;;26.50;;
79137;SDS011;68544;45.566;10.238;2023-10-13T03:03:09;29.58;;;26.17;;
79137;SDS011;68544;45.566;10.238;2023-10-13T03:05:35;31.40;;;27.17;;
79137;SDS011;68544;45.566;10.238;2023-10-13T03:08:03;30.52;;;25.58;;
79137;SDS011;68544;45.566;10.238;2023-10-13T03:10:30;32.67;;;25.95;;
79137;SDS011;68544;45.566;10.238;2023-10-13T03:12:55;32.90;;;26.70;;
79137;SDS011;68544;45.566;10.238;2023-10-13T03:15:21;34.22;;;25.20;;
79137;SDS011;68544;45.566;10.238;2023-10-13T03:17:55;29.23;;;25.85;;
79137;SDS011;68544;45.566;10.238;2023-10-13T03:20:23;29.30;;;24.17;;
79137;SDS011;68544;45.566;10.238;2023-10-13T03:22:55;30.00;;;25.80;;
79137;SDS011;68544;45.566;10.238;2023-10-13T03:25:21;33.45;;;26.77;;
79137;SDS011;68544;45.566;10.238;2023-10-13T03:27:53;31.05;;;27.50;;
79137;SDS011;68544;45.566;10.238;2023-10-13T03:30:19;32.90;;;27.75;;
79137;SDS011;68544;45.566;10.238;2023-10-13T03:32:46;31.85;;;28.20;;
79137;SDS011;68544;45.566;10.238;2023-10-13T03:35:13;36.38;;;29.13;;
79137;SDS011;68544;45.566;10.238;2023-10-13T03:37:48;33.13;;;27.83;;
79137;SDS011;68544;45.566;10.238;2023-10-13T03:40:13;34.63;;;26.90;;
79137;SDS011;68544;45.566;10.238;2023-10-13T03:42:41;33.10;;;28.58;;
79137;SDS011;68544;45.566;10.238;2023-10-13T03:45:07;34.63;;;27.77;;
79137;SDS011;68544;45.566;10.238;2023-10-13T03:47:35;31.40;;;27.05;;
79137;SDS011;68544;45.566;10.238;2023-10-13T03:50:03;34.50;;;27.20;;
79137;SDS011;68544;45.566;10.238;2023-10-13T03:52:47;36.17;;;28.88;;
79137;SDS011;68544;45.566;10.238;2023-10-13T03:57:42;39.80;;;29.50;;
79137;SDS011;68544;45.566;10.238;2023-10-13T04:00:10;31.05;;;27.67;;
79137;SDS011;68544;45.566;10.238;2023-10-13T04:02:46;36.58;;;27.63;;
79137;SDS011;68544;45.566;10.238;2023-10-13T04:05:17;35.63;;;29.23;;
79137;SDS011;68544;45.566;10.238;2023-10-13T04:08:03;32.60;;;27.55;;
79137;SDS011;68544;45.566;10.238;2023-10-13T04:10:48;32.50;;;27.27;;
79137;SDS011;68544;45.566;10.238;2023-10-13T04:13:17;35.28;;;28.30;;
79137;SDS011;68544;45.566;10.238;2023-10-13T04:16:01;28.33;;;25.38;;
79137;SDS011;68544;45.566;10.238;2023-10-13T04:18:41;30.63;;;26.67;;
79137;SDS011;68544;45.566;10.238;2023-10-13T04:21:25;33.53;;;26.17;;
79137;SDS011;68544;45.566;10.238;2023-10-13T04:24:29;34.38;;;26.83;;
79137;SDS011;68544;45.566;10.238;2023-10-13T04:27:00;36.33;;;28.48;;
79137;SDS011;68544;45.566;10.238;2023-10-13T04:29:40;33.83;;;26.10;;
79137;SDS011;68544;45.566;10.238;2023-10-13T04:32:21;35.78;;;27.73;;
79137;SDS011;68544;45.566;10.238;2023-10-13T04:34:58;34.63;;;27.20;;
79137;SDS011;68544;45.566;10.238;2023-10-13T04:37:37;31.20;;;26.83;;
79137;SDS011;68544;45.566;10.238;2023-10-13T04:40:17;29.50;;;26.30;;
79137;SDS011;68544;45.566;10.238;2023-10-13T04:42:44;31.73;;;26.58;;
79137;SDS011;68544;45.566;10.238;2023-10-13T04:45:15;30.80;;;26.30;;
79137;SDS011;68544;45.566;10.238;2023-10-13T04:47:57;30.35;;;27.13;;
79137;SDS011;68544;45.566;10.238;2023-10-13T04:50:41;32.92;;;27.50;;
79137;SDS011;68544;45.566;10.238;2023-10-13T04:53:14;33.72;;;27.10;;
79137;SDS011;68544;45.566;10.238;2023-10-13T04:55:59;30.75;;;25.95;;
79137;SDS011;68544;45.566;10.238;2023-10-13T04:58:31;28.05;;;24.90;;
79137;SDS011;68544;45.566;10.238;2023-10-13T05:01:00;31.30;;;26.73;;
79137;SDS011;68544;45.566;10.238;2023-10-13T05:03:44;33.08;;;26.70;;
79137;SDS011;68544;45.566;10.238;2023-10-13T05:06:33;31.15;;;26.35;;
79137;SDS011;68544;45.566;10.238;2023-10-13T05:09:25;29.38;;;26.08;;
79137;SDS011;68544;45.566;10.238;2023-10-13T05:12:09;29.33;;;26.27;;
79137;SDS011;68544;45.566;10.238;2023-10-13T05:14:52;31.40;;;26.50;;
79137;SDS011;68544;45.566;10.238;2023-10-13T05:17:36;29.10;;;25.98;;
79137;SDS011;68544;45.566;10.238;2023-10-13T05:20:20;31.52;;;27.20;;
79137;SDS011;68544;45.566;10.238;2023-10-13T05:23:04;32.33;;;27.75;;
79137;SDS011;68544;45.566;10.238;2023-10-13T05:25:48;36.20;;;28.10;;
79137;SDS011;68544;45.566;10.238;2023-10-13T05:28:32;36.45;;;28.05;;
79137;SDS011;68544;45.566;10.238;2023-10-13T05:31:16;33.53;;;28.05;;
79137;SDS011;68544;45.566;10.238;2023-10-13T05:34:00;33.25;;;28.13;;
79137;SDS011;68544;45.566;10.238;2023-10-13T05:36:44;34.78;;;28.67;;
79137;SDS011;68544;45.566;10.238;2023-10-13T05:39:28;32.95;;;27.70;;
79137;SDS011;68544;45.566;10.238;2023-10-13T05:42:12;30.90;;;26.65;;
79137;SDS011;68544;45.566;10.238;2023-10-13T05:44:56;36.47;;;26.80;;
79137;SDS011;68544;45.566;10.238;2023-10-13T05:47:41;28.90;;;25.88;;
79137;SDS011;68544;45.566;10.238;2023-10-13T05:50:06;29.98;;;26.60;;
79137;SDS011;68544;45.566;10.238;2023-10-13T05:52:39;31.35;;;26.65;;
79137;SDS011;68544;45.566;10.238;2023-10-13T05:55:26;32.65;;;26.83;;
79137;SDS011;68544;45.566;10.238;2023-10-13T05:58:11;31.02;;;27.63;;
79137;SDS011;68544;45.566;10.238;2023-10-13T06:00:55;31.23;;;27.92;;
79137;SDS011;68544;45.566;10.238;2023-10-13T06:03:39;32.88;;;27.05;;
79137;SDS011;68544;45.566;10.238;2023-10-13T06:06:23;33.25;;;28.00;;
79137;SDS011;68544;45.566;10.238;2023-10-13T06:09:07;40.05;;;27.98;;
79137;SDS011;68544;45.566;10.238;2023-10-13T06:11:51;33.55;;;27.13;;
79137;SDS011;68544;45.566;10.238;2023-10-13T06:14:35;34.95;;;27.30;;
79137;SDS011;68544;45.566;10.238;2023-10-13T06:17:19;40.25;;;27.95;;
79137;SDS011;68544;45.566;10.238;2023-10-13T06:20:03;37.03;;;27.02;;
79137;SDS011;68544;45.566;10.238;2023-10-13T06:22:48;33.20;;;27.42;;
79137;SDS011;68544;45.566;10.238;2023-10-13T06:25:33;34.58;;;27.02;;
79137;SDS011;68544;45.566;10.238;2023-10-13T06:28:17;32.65;;;26.17;;
79137;SDS011;68544;45.566;10.238;2023-10-13T06:31:01;33.08;;;27.08;;
79137;SDS011;68544;45.566;10.238;2023-10-13T06:33:31;31.58;;;26.30;;
79137;SDS011;68544;45.566;10.238;2023-10-13T06:35:59;37.10;;;25.35;;
79137;SDS011;68544;45.566;10.238;2023-10-13T06:38:26;33.75;;;24.00;;
79137;SDS011;68544;45.566;10.238;2023-10-13T06:40:56;36.08;;;26.50;;
79137;SDS011;68544;45.566;10.238;2023-10-13T06:43:22;37.63;;;25.63;;
79137;SDS011;68544;45.566;10.238;2023-10-13T06:48:37;33.90;;;25.77;;
79137;SDS011;68544;45.566;10.238;2023-10-13T06:51:05;35.80;;;26.88;;
79137;SDS011;68544;45.566;10.238;2023-10-13T06:53:42;32.45;;;27.45;;
79137;SDS011;68544;45.566;10.238;2023-10-13T06:56:12;36.45;;;25.58;;
79137;SDS011;68544;45.566;10.238;2023-10-13T06:58:42;36.33;;;26.65;;
79137;SDS011;68544;45.566;10.238;2023-10-13T07:01:11;36.58;;;25.35;;
79137;SDS011;68544;45.566;10.238;2023-10-13T07:03:42;32.70;;;24.08;;
79137;SDS011;68544;45.566;10.238;2023-10-13T07:06:08;33.53;;;25.15;;
79137;SDS011;68544;45.566;10.238;2023-10-13T07:08:43;38.55;;;26.55;;
79137;SDS011;68544;45.566;10.238;2023-10-13T07:11:17;33.28;;;26.38;;
79137;SDS011;68544;45.566;10.238;2023-10-13T07:14:07;30.65;;;24.95;;
79137;SDS011;68544;45.566;10.238;2023-10-13T07:19:11;35.50;;;26.65;;
79137;SDS011;68544;45.566;10.238;2023-10-13T07:21:42;32.00;;;27.45;;
79137;SDS011;68544;45.566;10.238;2023-10-13T07:24:10;32.42;;;27.08;;
79137;SDS011;68544;45.566;10.238;2023-10-13T07:26:36;34.53;;;26.48;;
79137;SDS011;68544;45.566;10.238;2023-10-13T07:29:10;38.58;;;26.92;;
79137;SDS011;68544;45.566;10.238;2023-10-13T07:34:03;30.23;;;24.73;;
79137;SDS011;68544;45.566;10.238;2023-10-13T07:36:38;38.17;;;27.35;;
79137;SDS011;68544;45.566;10.238;2023-10-13T07:39:08;31.80;;;25.10;;
79137;SDS011;68544;45.566;10.238;2023-10-13T07:41:49;36.53;;;26.40;;
79137;SDS011;68544;45.566;10.238;2023-10-13T07:44:19;36.95;;;27.27;;
79137;SDS011;68544;45.566;10.238;2023-10-13T07:46:46;33.83;;;27.48;;
79137;SDS011;68544;45.566;10.238;2023-10-13T07:49:23;29.13;;;24.73;;
79137;SDS011;68544;45.566;10.238;2023-10-13T07:51:48;32.92;;;25.83;;
79137;SDS011;68544;45.566;10.238;2023-10-13T07:54:14;29.35;;;23.50;;
79137;SDS011;68544;45.566;10.238;2023-10-13T07:56:47;30.08;;;23.08;;
79137;SDS011;68544;45.566;10.238;2023-10-13T07:59:12;26.52;;;21.95;;
79137;SDS011;68544;45.566;10.238;2023-10-13T08:01:40;30.63;;;22.70;;
79137;SDS011;68544;45.566;10.238;2023-10-13T08:04:09;29.05;;;22.27;;
79137;SDS011;68544;45.566;10.238;2023-10-13T08:06:37;29.13;;;22.40;;
79137;SDS011;68544;45.566;10.238;2023-10-13T08:09:06;27.95;;;21.55;;
79137;SDS011;68544;45.566;10.238;2023-10-13T08:11:37;31.02;;;20.60;;
79137;SDS011;68544;45.566;10.238;2023-10-13T08:14:03;30.48;;;19.60;;
79137;SDS011;68544;45.566;10.238;2023-10-13T08:16:36;28.25;;;19.55;;
79137;SDS011;68544;45.566;10.238;2023-10-13T08:21:52;24.65;;;18.85;;
79137;SDS011;68544;45.566;10.238;2023-10-13T08:24:23;32.08;;;20.70;;
79137;SDS011;68544;45.566;10.238;2023-10-13T08:26:52;31.83;;;21.10;;
79137;SDS011;68544;45.566;10.238;2023-10-13T08:29:36;26.13;;;18.70;;
79137;SDS011;68544;45.566;10.238;2023-10-13T08:32:23;29.38;;;18.27;;
79137;SDS011;68544;45.566;10.238;2023-10-13T08:34:52;30.25;;;19.40;;
79137;SDS011;68544;45.566;10.238;2023-10-13T08:39:50;26.38;;;18.25;;
79137;SDS011;68544;45.566;10.238;2023-10-13T08:45:07;24.55;;;20.35;;
79137;SDS011;68544;45.566;10.238;2023-10-13T08:47:48;32.95;;;22.83;;
79137;SDS011;68544;45.566;10.238;2023-10-13T08:50:47;31.40;;;22.70;;
79137;SDS011;68544;45.566;10.238;2023-10-13T08:56:01;29.25;;;22.85;;
79137;SDS011;68544;45.566;10.238;2023-10-13T08:58:53;31.27;;;23.73;;
79137;SDS011;68544;45.566;10.238;2023-10-13T09:04:04;33.58;;;22.88;;
79137;SDS011;68544;45.566;10.238;2023-10-13T09:06:46;36.03;;;23.35;;
79137;SDS011;68544;45.566;10.238;2023-10-13T09:09:28;36.92;;;26.35;;
79137;SDS011;68544;45.566;10.238;2023-10-13T09:12:17;33.13;;;25.80;;
79137;SDS011;68544;45.566;10.238;2023-10-13T09:14:51;35.63;;;26.90;;
79137;SDS011;68544;45.566;10.238;2023-10-13T09:17:24;34.88;;;25.80;;
79137;SDS011;68544;45.566;10.238;2023-10-13T09:22:46;35.95;;;25.58;;
79137;SDS011;68544;45.566;10.238;2023-10-13T09:25:21;38.35;;;26.50;;
79137;SDS011;68544;45.566;10.238;2023-10-13T09:27:48;37.75;;;26.00;;
79137;SDS011;68544;45.566;10.238;2023-10-13T09:30:16;42.53;;;25.73;;
79137;SDS011;68544;45.566;10.238;2023-10-13T09:32:48;32.95;;;24.23;;
79137;SDS011;68544;45.566;10.238;2023-10-13T09:35:27;31.48;;;24.83;;
79137;SDS011;68544;45.566;10.238;2023-10-13T09:37:53;32.35;;;24.42;;
79137;SDS011;68544;45.566;10.238;2023-10-13T09:40:22;36.92;;;25.67;;
79137;SDS011;68544;45.566;10.238;2023-10-13T09:42:53;35.88;;;25.63;;
79137;SDS011;68544;45.566;10.238;2023-10-13T09:45:26;38.85;;;24.83;;
79137;SDS011;68544;45.566;10.238;2023-10-13T09:47:54;33.08;;;25.17;;
79137;SDS011;68544;45.566;10.238;2023-10-13T09:50:25;32.03;;;25.02;;
79137;SDS011;68544;45.566;10.238;2023-10-13T09:52:58;29.63;;;23.58;;
79137;SDS011;68544;45.566;10.238;2023-10-13T09:55:32;31.23;;;23.58;;
79137;SDS011;68544;45.566;10.238;2023-10-13T09:58:03;31.77;;;22.63;;
79137;SDS011;68544;45.566;10.238;2023-10-13T10:00:55;32.42;;;25.08;;
79137;SDS011;68544;45.566;10.238;2023-10-13T10:03:32;35.83;;;27.55;;
79137;SDS011;68544;45.566;10.238;2023-10-13T10:06:00;31.33;;;25.10;;
79137;SDS011;68544;45.566;10.238;2023-10-13T10:08:31;34.03;;;25.15;;
79137;SDS011;68544;45.566;10.238;2023-10-13T10:14:00;29.45;;;24.00;;
79137;SDS011;68544;45.566;10.238;2023-10-13T10:16:43;26.60;;;22.42;;
79137;SDS011;68544;45.566;10.238;2023-10-13T10:19:12;30.50;;;22.73;;
79137;SDS011;68544;45.566;10.238;2023-10-13T10:21:37;29.10;;;22.95;;
79137;SDS011;68544;45.566;10.238;2023-10-13T10:24:13;27.25;;;22.00;;
79137;SDS011;68544;45.566;10.238;2023-10-13T10:27:00;25.65;;;21.38;;
79137;SDS011;68544;45.566;10.238;2023-10-13T10:29:25;25.77;;;20.27;;
79137;SDS011;68544;45.566;10.238;2023-10-13T10:31:50;24.67;;;19.15;;
79137;SDS011;68544;45.566;10.238;2023-10-13T10:34:16;26.55;;;19.08;;
79137;SDS011;68544;45.566;10.238;2023-10-13T10:36:47;28.73;;;21.58;;
79137;SDS011;68544;45.566;10.238;2023-10-13T10:39:18;28.10;;;22.42;;
79137;SDS011;68544;45.566;10.238;2023-10-13T10:41:44;24.17;;;20.38;;
79137;SDS011;68544;45.566;10.238;2023-10-13T10:44:12;24.40;;;19.90;;
79137;SDS011;68544;45.566;10.238;2023-10-13T10:46:41;26.73;;;20.73;;
79137;SDS011;68544;45.566;10.238;2023-10-13T10:49:16;25.35;;;20.25;;
79137;SDS011;68544;45.566;10.238;2023-10-13T10:51:52;20.98;;;17.10;;
79137;SDS011;68544;45.566;10.238;2023-10-13T10:54:23;20.27;;;14.20;;
79137;SDS011;68544;45.566;10.238;2023-10-13T10:56:55;13.45;;;10.60;;
79137;SDS011;68544;45.566;10.238;2023-10-13T10:59:20;17.60;;;12.52;;
79137;SDS011;68544;45.566;10.238;2023-10-13T11:01:50;20.58;;;14.35;;
79137;SDS011;68544;45.566;10.238;2023-10-13T11:04:18;18.23;;;14.60;;
79137;SDS011;68544;45.566;10.238;2023-10-13T11:06:52;20.13;;;16.02;;
79137;SDS011;68544;45.566;10.238;2023-10-13T11:09:32;20.10;;;16.13;;
79137;SDS011;68544;45.566;10.238;2023-10-13T11:14:40;21.65;;;17.55;;
79137;SDS011;68544;45.566;10.238;2023-10-13T11:17:05;20.25;;;17.30;;
79137;SDS011;68544;45.566;10.238;2023-10-13T11:19:44;19.45;;;14.75;;
79137;SDS011;68544;45.566;10.238;2023-10-13T11:22:36;18.92;;;14.48;;
79137;SDS011;68544;45.566;10.238;2023-10-13T11:25:03;21.42;;;14.98;;
79137;SDS011;68544;45.566;10.238;2023-10-13T11:27:34;16.77;;;13.10;;
79137;SDS011;68544;45.566;10.238;2023-10-13T11:30:16;17.92;;;12.32;;
79137;SDS011;68544;45.566;10.238;2023-10-13T11:33:02;18.50;;;11.45;;
79137;SDS011;68544;45.566;10.238;2023-10-13T11:35:34;15.27;;;10.52;;
79137;SDS011;68544;45.566;10.238;2023-10-13T11:38:35;15.68;;;10.38;;
79137;SDS011;68544;45.566;10.238;2023-10-13T11:41:10;15.13;;;10.23;;
79137;SDS011;68544;45.566;10.238;2023-10-13T11:46:09;13.80;;;9.30;;
79137;SDS011;68544;45.566;10.238;2023-10-13T11:48:40;13.82;;;9.88;;
79137;SDS011;68544;45.566;10.238;2023-10-13T11:51:13;14.85;;;11.45;;
79137;SDS011;68544;45.566;10.238;2023-10-13T11:53:43;13.18;;;9.88;;
79137;SDS011;68544;45.566;10.238;2023-10-13T11:56:19;10.63;;;9.20;;
79137;SDS011;68544;45.566;10.238;2023-10-13T11:58:48;16.23;;;9.75;;
79137;SDS011;68544;45.566;10.238;2023-10-13T12:01:14;14.10;;;9.95;;
79137;SDS011;68544;45.566;10.238;2023-10-13T12:03:44;12.77;;;10.82;;
79137;SDS011;68544;45.566;10.238;2023-10-13T12:06:29;10.98;;;9.10;;
79137;SDS011;68544;45.566;10.238;2023-10-13T12:09:03;13.52;;;9.00;;
79137;SDS011;68544;45.566;10.238;2023-10-13T12:11:56;12.88;;;8.27;;
79137;SDS011;68544;45.566;10.238;2023-10-13T12:14:25;11.95;;;7.47;;
79137;SDS011;68544;45.566;10.238;2023-10-13T12:16:55;13.52;;;7.93;;
79137;SDS011;68544;45.566;10.238;2023-10-13T12:19:21;12.65;;;7.93;;
79137;SDS011;68544;45.566;10.238;2023-10-13T12:21:54;12.60;;;7.57;;
79137;SDS011;68544;45.566;10.238;2023-10-13T12:24:21;10.85;;;6.90;;
79137;SDS011;68544;45.566;10.238;2023-10-13T12:27:16;11.38;;;6.80;;
79137;SDS011;68544;45.566;10.238;2023-10-13T12:29:51;8.75;;;6.07;;
79137;SDS011;68544;45.566;10.238;2023-10-13T12:32:17;15.23;;;6.22;;
79137;SDS011;68544;45.566;10.238;2023-10-13T12:34:56;9.40;;;7.50;;
79137;SDS011;68544;45.566;10.238;2023-10-13T12:37:24;13.00;;;8.90;;
79137;SDS011;68544;45.566;10.238;2023-10-13T12:40:12;14.90;;;9.65;;
79137;SDS011;68544;45.566;10.238;2023-10-13T12:42:58;11.10;;;8.35;;
79137;SDS011;68544;45.566;10.238;2023-10-13T12:45:42;16.52;;;8.50;;
79137;SDS011;68544;45.566;10.238;2023-10-13T12:48:27;10.55;;;7.65;;
79137;SDS011;68544;45.566;10.238;2023-10-13T12:51:11;13.45;;;8.25;;
79137;SDS011;68544;45.566;10.238;2023-10-13T12:53:52;10.02;;;7.55;;
79137;SDS011;68544;45.566;10.238;2023-10-13T12:56:19;14.82;;;8.45;;
79137;SDS011;68544;45.566;10.238;2023-10-13T12:58:50;10.60;;;7.63;;
79137;SDS011;68544;45.566;10.238;2023-10-13T13:01:20;11.23;;;7.60;;
79137;SDS011;68544;45.566;10.238;2023-10-13T13:03:47;9.60;;;7.45;;
79137;SDS011;68544;45.566;10.238;2023-10-13T13:06:17;12.15;;;7.18;;
79137;SDS011;68544;45.566;10.238;2023-10-13T13:08:43;13.57;;;7.18;;
79137;SDS011;68544;45.566;10.238;2023-10-13T13:11:09;10.38;;;7.32;;
79137;SDS011;68544;45.566;10.238;2023-10-13T13:13:36;13.30;;;7.30;;
79137;SDS011;68544;45.566;10.238;2023-10-13T13:16:01;11.88;;;7.18;;
79137;SDS011;68544;45.566;10.238;2023-10-13T13:18:28;14.68;;;8.85;;
79137;SDS011;68544;45.566;10.238;2023-10-13T13:20:54;12.50;;;8.38;;
79137;SDS011;68544;45.566;10.238;2023-10-13T13:23:20;12.25;;;7.93;;
79137;SDS011;68544;45.566;10.238;2023-10-13T13:25:50;16.80;;;9.23;;
79137;SDS011;68544;45.566;10.238;2023-10-13T13:28:16;13.00;;;8.95;;
79137;SDS011;68544;45.566;10.238;2023-10-13T13:30:41;14.57;;;9.80;;
79137;SDS011;68544;45.566;10.238;2023-10-13T13:33:07;15.73;;;9.60;;
79137;SDS011;68544;45.566;10.238;2023-10-13T13:35:39;15.00;;;8.57;;
79137;SDS011;68544;45.566;10.238;2023-10-13T13:38:07;13.02;;;8.65;;
79137;SDS011;68544;45.566;10.238;2023-10-13T13:40:41;11.77;;;7.63;;
79137;SDS011;68544;45.566;10.238;2023-10-13T13:43:09;9.38;;;8.20;;
79137;SDS011;68544;45.566;10.238;2023-10-13T13:45:44;11.48;;;8.20;;
79137;SDS011;68544;45.566;10.238;2023-10-13T13:48:09;13.27;;;9.48;;
79137;SDS011;68544;45.566;10.238;2023-10-13T13:50:40;14.15;;;9.25;;
79137;SDS011;68544;45.566;10.238;2023-10-13T13:53:06;12.13;;;8.50;;
79137;SDS011;68544;45.566;10.238;2023-10-13T13:55:35;13.65;;;8.05;;
79137;SDS011;68544;45.566;10.238;2023-10-13T13:58:00;13.18;;;9.10;;
79137;SDS011;68544;45.566;10.238;2023-10-13T14:00:26;10.90;;;8.48;;
79137;SDS011;68544;45.566;10.238;2023-10-13T14:03:07;16.05;;;9.50;;
79137;SDS011;68544;45.566;10.238;2023-10-13T14:05:43;11.65;;;8.82;;
79137;SDS011;68544;45.566;10.238;2023-10-13T14:08:09;14.13;;;8.60;;
79137;SDS011;68544;45.566;10.238;2023-10-13T14:10:37;13.55;;;8.73;;
79137;SDS011;68544;45.566;10.238;2023-10-13T14:13:23;14.75;;;9.40;;
79137;SDS011;68544;45.566;10.238;2023-10-13T14:16:08;13.38;;;8.63;;
79137;SDS011;68544;45.566;10.238;2023-10-13T14:18:41;12.35;;;10.50;;
79137;SDS011;68544;45.566;10.238;2023-10-13T14:21:10;13.23;;;10.48;;
79137;SDS011;68544;45.566;10.238;2023-10-13T14:23:35;12.23;;;8.48;;
79137;SDS011;68544;45.566;10.238;2023-10-13T14:26:01;10.82;;;7.75;;
79137;SDS011;68544;45.566;10.238;2023-10-13T14:28:26;14.98;;;7.82;;
79137;SDS011;68544;45.566;10.238;2023-10-13T14:30:59;14.55;;;8.10;;
79137;SDS011;68544;45.566;10.238;2023-10-13T14:33:34;11.13;;;7.07;;
79137;SDS011;68544;45.566;10.238;2023-10-13T14:36:01;10.85;;;6.93;;
79137;SDS011;68544;45.566;10.238;2023-10-13T14:38:29;11.80;;;7.32;;
79137;SDS011;68544;45.566;10.238;2023-10-13T14:40:56;9.85;;;7.25;;
79137;SDS011;68544;45.566;10.238;2023-10-13T14:43:24;10.40;;;6.93;;
79137;SDS011;68544;45.566;10.238;2023-10-13T14:45:55;7.90;;;6.82;;
79137;SDS011;68544;45.566;10.238;2023-10-13T14:48:20;10.38;;;7.13;;
79137;SDS011;68544;45.566;10.238;2023-10-13T14:50:49;14.55;;;7.43;;
79137;SDS011;68544;45.566;10.238;2023-10-13T14:53:14;13.00;;;7.63;;
79137;SDS011;68544;45.566;10.238;2023-10-13T14:55:44;11.07;;;7.35;;
79137;SDS011;68544;45.566;10.238;2023-10-13T14:58:09;13.35;;;8.13;;
79137;SDS011;68544;45.566;10.238;2023-10-13T15:00:41;10.77;;;7.25;;
79137;SDS011;68544;45.566;10.238;2023-10-13T15:03:10;9.27;;;7.03;;
79137;SDS011;68544;45.566;10.238;2023-10-13T15:05:39;9.95;;;6.90;;
79137;SDS011;68544;45.566;10.238;2023-10-13T15:08:04;10.75;;;6.70;;
79137;SDS011;68544;45.566;10.238;2023-10-13T15:10:31;8.90;;;6.72;;
79137;SDS011;68544;45.566;10.238;2023-10-13T15:12:57;11.00;;;7.78;;
79137;SDS011;68544;45.566;10.238;2023-10-13T15:15:24;12.13;;;7.07;;
79137;SDS011;68544;45.566;10.238;2023-10-13T15:17:49;11.00;;;7.25;;
79137;SDS011;68544;45.566;10.238;2023-10-13T15:20:15;11.68;;;6.72;;